Time;durP1;ratioP1;P1;durP2;ratioP2;P2;SDS_P1;SDS_P2;PMS_P1;PMS_P2;Temp;Humidity;BMP_temperature;BMP_pressure;BME280_temperature;BME280_humidity;BME280_pressure;Samples;Min_cycle;Max_cycle;Signal;HPM_P1;HPM_P2
2022/10/13 07:12:06;;;;;;;;;7.00;7.00;;;;;19.08;54.78;101578.91;5008063;28;45554;-82
2022/10/13 07:14:32;;;;;;;;;5.00;5.00;;;;;19.27;54.37;101576.63;5002145;28;45352;-81
2022/10/13 07:16:57;;;;;;;;;4.75;4.75;;;;;19.53;54.68;101582.66;5010128;28;45279;-81
2022/10/13 07:19:22;;;;;;;;;6.50;6.50;;;;;19.84;54.00;101577.53;5010378;28;45467;-79
2022/10/13 07:21:48;;;;;;;;;8.25;8.00;;;;;20.15;54.02;101582.28;5010405;28;56125;-82
2022/10/13 07:24:13;;;;;;;;;6.33;6.33;;;;;20.47;53.68;101589.56;5009520;28;45454;-78
2022/10/13 07:26:38;;;;;;;;;9.25;6.75;;;;;20.80;53.41;101609.28;5011229;28;45492;-81
2022/10/13 07:29:04;;;;;;;;;7.00;7.00;;;;;21.06;52.85;101597.31;5013391;28;45363;-81
2022/10/13 07:31:29;;;;;;;;;6.00;6.00;;;;;21.38;52.18;101601.75;5021288;28;45401;-80
2022/10/13 07:33:58;;;;;;;;;6.33;6.33;;;;;21.63;52.04;101583.44;4998011;28;45595;-81
2022/10/13 07:36:23;;;;;;;;;5.00;5.00;;;;;21.84;51.70;101571.72;4996468;28;45523;-80
2022/10/13 07:38:48;;;;;;;;;6.00;6.00;;;;;22.08;51.05;101576.75;5009545;28;45521;-79
2022/10/13 07:41:14;;;;;;;;;4.67;4.67;;;;;22.29;51.19;101580.38;4995236;28;46268;-81
2022/10/13 07:43:40;;;;;;;;;5.33;5.33;;;;;22.45;51.13;101577.97;4998412;28;45815;-79
2022/10/13 07:46:06;;;;;;;;;3.00;3.00;;;;;22.62;50.97;101581.00;5005740;28;45513;-77
2022/10/13 07:48:32;;;;;;;;;5.00;5.00;;;;;22.80;50.50;101578.41;4990424;28;45500;-79
2022/10/13 07:50:58;;;;;;;;;7.00;6.00;;;;;22.96;50.44;101588.66;5004659;28;45504;-78
2022/10/13 07:53:23;;;;;;;;;6.33;6.00;;;;;23.09;49.89;101577.53;4996363;28;45373;-77
2022/10/13 07:55:49;;;;;;;;;6.33;6.33;;;;;23.25;49.67;101584.19;4992850;28;46583;-78
2022/10/13 07:58:14;;;;;;;;;6.67;5.33;;;;;23.41;49.52;101591.75;5014612;28;45307;-76
2022/10/13 08:00:40;;;;;;;;;5.00;5.00;;;;;23.54;49.48;101594.16;5007686;28;46851;-80
2022/10/13 08:03:06;;;;;;;;;7.00;5.67;;;;;23.65;49.22;101604.78;4995372;28;45464;-77
2022/10/13 08:05:31;;;;;;;;;5.00;4.67;;;;;23.75;48.95;101595.78;4997781;28;45424;-79
2022/10/13 08:07:57;;;;;;;;;5.00;5.00;;;;;23.85;48.94;101606.56;4997563;28;49030;-78
2022/10/13 08:10:22;;;;;;;;;4.00;4.00;;;;;23.91;48.46;101595.97;4996768;28;46527;-78
2022/10/13 08:12:48;;;;;;;;;5.00;5.00;;;;;23.99;48.67;101606.06;5023782;28;45959;-79
2022/10/13 08:15:13;;;;;;;;;6.00;5.67;;;;;24.06;48.33;101606.31;5013243;28;45452;-78
2022/10/13 08:17:38;;;;;;;;;6.33;4.33;;;;;24.10;48.24;101609.63;5018513;28;45429;-78
2022/10/13 08:20:05;;;;;;;;;5.00;5.00;;;;;24.16;48.11;101623.41;5000407;28;46164;-76
2022/10/13 08:22:33;;;;;;;;;5.00;5.00;;;;;24.23;48.10;101620.94;5015823;28;45493;-75
2022/10/13 08:24:59;;;;;;;;;4.00;4.00;;;;;24.30;47.62;101624.75;5016514;28;45415;-77
2022/10/13 08:27:25;;;;;;;;;6.00;5.00;;;;;24.39;47.79;101627.56;5010061;28;45356;-76
2022/10/13 08:29:51;;;;;;;;;5.00;4.33;;;;;24.45;47.79;101619.66;5015172;28;45395;-76
2022/10/13 08:32:19;;;;;;;;;6.00;3.67;;;;;24.51;47.34;101615.47;5019974;28;45648;-74
2022/10/13 08:34:45;;;;;;;;;5.67;4.33;;;;;24.60;47.49;101619.97;5016637;28;45409;-79
2022/10/13 08:37:13;;;;;;;;;4.67;4.00;;;;;24.68;47.26;101618.38;5011056;28;45771;-78
2022/10/13 08:39:39;;;;;;;;;6.67;6.00;;;;;24.74;47.31;101623.16;5016947;28;45424;-80
2022/10/13 08:42:13;;;;;;;;;5.67;5.67;;;;;24.81;47.40;101624.22;5015044;28;47739;-80
2022/10/13 08:44:42;;;;;;;;;7.00;5.00;;;;;24.85;47.04;101632.97;5012358;28;45506;-79
2022/10/13 08:47:19;;;;;;;;;4.00;4.00;;;;;24.89;47.06;101628.06;5016670;28;45405;-81
2022/10/13 08:49:45;;;;;;;;;3.67;3.67;;;;;24.92;47.05;101625.91;5023961;28;45586;-77
2022/10/13 08:52:20;;;;;;;;;4.33;4.00;;;;;24.93;47.04;101630.31;5015270;28;60103;-78
2022/10/13 08:54:46;;;;;;;;;5.67;5.00;;;;;24.97;46.86;101630.88;5016741;28;45445;-78
2022/10/13 08:57:11;;;;;;;;;8.33;5.33;;;;;24.98;46.58;101624.41;5016824;28;45509;-78
2022/10/13 08:59:37;;;;;;;;;3.33;3.33;;;;;24.98;46.64;101622.53;5015867;28;45917;-76
2022/10/13 09:02:10;;;;;;;;;5.67;5.67;;;;;24.97;46.38;101618.13;5013665;28;45460;-83
2022/10/13 09:04:40;;;;;;;;;6.33;4.00;;;;;24.99;46.55;101620.69;5007663;28;45485;-80
2022/10/13 09:07:14;;;;;;;;;3.33;3.33;;;;;25.02;46.76;101619.53;5026271;28;45369;-83
2022/10/13 09:09:40;;;;;;;;;4.33;4.33;;;;;25.06;46.77;101613.59;5026858;28;45978;-85
2022/10/13 09:12:06;;;;;;;;;5.00;4.00;;;;;25.09;46.49;101621.44;5012522;28;45665;-82
2022/10/13 09:14:34;;;;;;;;;4.00;4.00;;;;;25.16;46.67;101620.81;5016424;28;45698;-83
2022/10/13 09:17:25;;;;;;;;;4.67;3.00;;;;;25.21;46.59;101624.75;5018472;28;45739;-82
2022/10/13 09:20:21;;;;;;;;;4.00;3.00;;;;;25.27;46.25;101629.53;4999711;28;47170;-83
2022/10/13 09:23:02;;;;;;;;;5.33;4.00;;;;;25.32;46.75;101630.94;5013812;28;45362;-82
2022/10/13 09:25:28;;;;;;;;;4.00;2.00;;;;;25.37;46.47;101634.03;5016284;28;45495;-81
2022/10/13 09:27:59;;;;;;;;;4.00;4.00;;;;;25.37;46.16;101632.19;4997806;28;46123;-80
2022/10/13 09:30:38;;;;;;;;;4.00;4.00;;;;;25.41;46.31;101627.28;5015772;28;46136;-80
2022/10/13 09:33:03;;;;;;;;;2.67;2.67;;;;;25.43;46.30;101625.25;5015466;28;45432;-80
2022/10/13 09:35:28;;;;;;;;;3.00;3.00;;;;;25.44;46.14;101621.53;5014654;28;45361;-80
2022/10/13 09:38:14;;;;;;;;;4.00;4.00;;;;;25.42;46.53;101619.97;5015704;28;45413;-80
2022/10/13 09:40:40;;;;;;;;;4.33;3.67;;;;;25.45;46.29;101617.78;5014007;28;45938;-81
2022/10/13 09:43:26;;;;;;;;;4.00;4.00;;;;;25.43;46.09;101594.50;5014143;28;45430;-81
2022/10/13 09:45:52;;;;;;;;;4.00;2.67;;;;;25.46;46.26;101608.63;5013844;28;45420;-81
2022/10/13 09:48:25;;;;;;;;;6.00;3.67;;;;;25.43;46.03;101602.66;5015284;28;45431;-81
2022/10/13 09:50:54;;;;;;;;;3.33;3.00;;;;;25.41;46.05;101604.69;5015660;28;46352;-80
2022/10/13 09:53:27;;;;;;;;;3.00;3.00;;;;;25.38;46.05;101595.00;5011952;28;45404;-81
2022/10/13 09:56:16;;;;;;;;;2.67;2.67;;;;;25.35;45.71;101603.47;5005045;28;45525;-82
2022/10/13 09:59:13;;;;;;;;;3.67;3.00;;;;;25.31;46.04;101610.22;5002500;28;45436;-81
2022/10/13 10:01:43;;;;;;;;;1.67;1.67;;;;;25.28;45.73;101608.69;5028461;28;45429;-81
2022/10/13 10:04:17;;;;;;;;;4.33;3.00;;;;;25.22;45.55;101609.31;5012344;28;45469;-79
2022/10/13 10:06:45;;;;;;;;;4.00;3.00;;;;;25.20;45.84;101616.75;5015835;28;45346;-81
2022/10/13 10:09:21;;;;;;;;;3.33;3.33;;;;;25.18;45.92;101605.22;5014852;28;45531;-81
2022/10/13 10:11:51;;;;;;;;;4.00;3.00;;;;;25.12;44.39;101610.28;5011410;28;46474;-81
2022/10/13 10:14:26;;;;;;;;;2.00;2.00;;;;;25.10;45.28;101609.56;4999713;28;46032;-75
2022/10/13 10:17:13;;;;;;;;;2.00;2.00;;;;;25.03;44.87;101605.78;5004728;28;45496;-77
2022/10/13 10:20:00;;;;;;;;;4.67;4.00;;;;;24.93;44.63;101599.59;5006462;28;45383;-78
2022/10/13 10:22:34;;;;;;;;;4.67;2.33;;;;;24.89;44.63;101603.63;5014627;28;45788;-78
2022/10/13 10:25:03;;;;;;;;;3.33;3.00;;;;;24.85;44.57;101601.22;5015240;28;45769;-78
2022/10/13 10:27:38;;;;;;;;;3.00;3.00;;;;;24.81;44.29;101601.69;5011895;28;45650;-78
2022/10/13 10:30:16;;;;;;;;;2.00;2.00;;;;;24.76;44.54;101604.84;5009155;28;45611;-78
2022/10/13 10:32:53;;;;;;;;;3.33;2.33;;;;;24.70;44.55;101598.19;4997409;28;47255;-78
2022/10/13 10:35:43;;;;;;;;;1.00;1.00;;;;;24.65;44.60;101603.25;4997393;28;45491;-78
2022/10/13 10:38:27;;;;;;;;;1.33;1.33;;;;;24.61;44.68;101604.56;5008386;28;45386;-78
2022/10/13 10:41:03;;;;;;;;;2.00;2.00;;;;;24.56;44.56;101596.88;5005624;28;45306;-80
2022/10/13 10:43:46;;;;;;;;;2.67;2.67;;;;;24.54;44.46;101589.88;5010108;28;46435;-74
2022/10/13 10:46:19;;;;;;;;;3.00;3.00;;;;;24.53;43.59;101580.91;5013746;28;45438;-75
2022/10/13 10:48:46;;;;;;;;;4.00;2.67;;;;;24.55;42.97;101587.03;5009976;28;45682;-75
2022/10/13 10:51:13;;;;;;;;;3.00;3.00;;;;;24.49;43.20;101590.38;4999319;28;45753;-75
2022/10/13 10:54:06;;;;;;;;;5.67;3.00;;;;;24.43;43.56;101593.69;5003800;28;46224;-75
2022/10/13 10:56:41;;;;;;;;;3.00;1.67;;;;;24.34;43.85;101590.03;5005448;28;45467;-75
2022/10/13 10:59:28;;;;;;;;;3.33;2.33;;;;;24.26;43.83;101582.66;5004034;28;45850;-75
2022/10/13 11:02:29;;;;;;;;;3.33;3.33;;;;;24.21;44.19;101580.41;5007952;28;45559;-76
2022/10/13 11:04:57;;;;;;;;;1.67;1.67;;;;;24.16;44.27;101571.88;4994344;28;47660;-76
2022/10/13 11:07:22;;;;;;;;;4.00;3.00;;;;;24.16;44.30;101574.59;4988582;28;46901;-76
2022/10/13 11:09:47;;;;;;;;;2.00;2.00;;;;;24.14;44.10;101575.75;5003239;28;45512;-76
2022/10/13 11:12:18;;;;;;;;;2.00;2.00;;;;;24.13;44.28;101572.19;4994044;28;45698;-75
2022/10/13 11:14:52;;;;;;;;;4.00;2.00;;;;;24.15;44.49;101585.59;5008809;28;46620;-77
2022/10/13 11:17:32;;;;;;;;;3.33;2.00;;;;;24.14;44.56;101563.03;5007767;28;45758;-77
2022/10/13 11:19:58;;;;;;;;;2.33;2.33;;;;;24.15;44.64;101564.75;4993379;28;45698;-77
2022/10/13 11:22:29;;;;;;;;;2.67;2.33;;;;;24.14;44.37;101563.03;4993757;28;45495;-75
2022/10/13 11:24:58;;;;;;;;;2.00;2.00;;;;;24.11;44.43;101554.38;4984308;28;45503;-77
2022/10/13 11:27:31;;;;;;;;;3.00;3.00;;;;;24.12;44.64;101551.50;5001245;28;45476;-75
2022/10/13 11:29:59;;;;;;;;;4.33;3.00;;;;;24.15;44.88;101550.34;4997202;28;45560;-75
2022/10/13 11:32:25;;;;;;;;;3.00;2.00;;;;;24.19;44.61;101554.44;5001934;28;45885;-76
2022/10/13 11:34:59;;;;;;;;;2.33;2.33;;;;;24.20;44.92;101548.88;4982692;28;46641;-75
2022/10/13 11:37:48;;;;;;;;;1.67;1.67;;;;;24.23;45.06;101555.00;5000988;28;45846;-78
2022/10/13 11:40:45;;;;;;;;;2.33;2.33;;;;;24.26;45.07;101546.53;4988203;28;45531;-75
2022/10/13 11:43:40;;;;;;;;;3.00;3.00;;;;;24.28;45.29;101537.25;5001002;28;45841;-76
2022/10/13 11:46:18;;;;;;;;;4.00;2.00;;;;;24.31;45.22;101546.94;4998552;28;46553;-76
2022/10/13 11:49:05;;;;;;;;;4.00;2.67;;;;;24.33;45.43;101551.19;4997708;28;45751;-76
2022/10/13 11:52:05;;;;;;;;;1.33;1.33;;;;;24.34;45.39;101543.91;5000890;28;45587;-77
2022/10/13 11:54:38;;;;;;;;;4.00;3.00;;;;;24.36;44.36;101547.31;4999537;28;45620;-78
2022/10/13 11:57:20;;;;;;;;;2.00;2.00;;;;;24.36;44.21;101544.59;4997148;28;45774;-76
2022/10/13 11:59:48;;;;;;;;;4.00;2.00;;;;;24.35;44.35;101534.75;4999328;28;45534;-76
2022/10/13 12:02:15;;;;;;;;;4.33;3.00;;;;;24.35;44.39;101534.75;5002118;28;45815;-83
2022/10/13 12:04:42;;;;;;;;;2.00;2.00;;;;;24.36;44.58;101532.91;5001200;28;45723;-79
2022/10/13 12:07:13;;;;;;;;;2.00;2.00;;;;;24.36;44.82;101531.03;5000720;28;45573;-79
2022/10/13 12:09:56;;;;;;;;;3.00;3.00;;;;;24.37;44.85;101521.91;5002980;28;45461;-81
2022/10/13 12:12:22;;;;;;;;;2.33;2.33;;;;;24.37;44.78;101516.50;5004568;28;45782;-82
2022/10/13 12:14:50;;;;;;;;;3.00;2.67;;;;;24.40;44.85;101516.16;5003558;28;45574;-79
2022/10/13 12:17:24;;;;;;;;;2.67;2.67;;;;;24.42;44.76;101507.88;5001656;28;45546;-77
2022/10/13 12:19:50;;;;;;;;;2.00;2.00;;;;;24.48;43.63;101504.53;5000432;28;45575;-74
2022/10/13 12:22:16;;;;;;;;;1.67;1.67;;;;;24.50;43.92;101515.22;4999843;28;45388;-76
2022/10/13 12:24:41;;;;;;;;;4.00;2.00;;;;;24.43;44.33;101515.00;5000110;28;45537;-77
2022/10/13 12:27:26;;;;;;;;;2.00;2.00;;;;;24.42;44.09;101514.16;5002181;28;51324;-81
2022/10/13 12:29:52;;;;;;;;;2.33;2.00;;;;;24.43;44.32;101521.28;5003376;28;45492;-80
2022/10/13 12:32:20;;;;;;;;;4.00;2.67;;;;;24.43;44.35;101513.13;5000431;28;45493;-78
2022/10/13 12:34:45;;;;;;;;;4.00;4.00;;;;;24.45;44.68;101513.81;4998677;28;45669;-80
2022/10/13 12:37:23;;;;;;;;;3.00;3.00;;;;;24.50;44.71;101517.94;5002055;28;45948;-78
2022/10/13 12:39:48;;;;;;;;;3.00;3.00;;;;;24.55;44.56;101510.19;5003874;28;46989;-77
2022/10/13 12:42:14;;;;;;;;;4.00;2.67;;;;;24.58;43.79;101508.03;5003431;28;45471;-72
2022/10/13 12:44:40;;;;;;;;;3.33;3.00;;;;;24.63;43.75;101509.38;5006271;28;45752;-76
2022/10/13 12:47:38;;;;;;;;;4.00;3.67;;;;;24.66;43.81;101504.53;5001607;28;46117;-77
2022/10/13 12:50:39;;;;;;;;;5.67;4.33;;;;;24.74;43.87;101504.56;5003780;28;45976;-84
2022/10/13 12:53:07;;;;;;;;;4.00;4.00;;;;;24.81;44.45;101509.38;4910565;28;45660;-83
2022/10/13 12:55:34;;;;;;;;;3.00;3.00;;;;;24.86;43.98;101505.19;4894431;28;46370;-81
2022/10/13 12:58:01;;;;;;;;;3.00;3.00;;;;;24.92;44.37;101500.97;4907615;28;45523;-82
2022/10/13 13:00:29;;;;;;;;;2.00;2.00;;;;;24.99;44.30;101490.34;4908771;28;46164;-81
2022/10/13 13:02:57;;;;;;;;;2.00;2.00;;;;;25.04;44.19;101493.41;4908008;28;47427;-77
2022/10/13 13:05:35;;;;;;;;;3.67;2.00;;;;;25.06;44.21;101493.25;4905598;28;45858;-77
2022/10/13 13:08:03;;;;;;;;;3.00;2.00;;;;;25.06;43.94;101494.09;4907140;28;46997;-85
2022/10/13 13:10:28;;;;;;;;;3.00;3.00;;;;;25.07;43.99;101486.81;4893286;28;45610;-83
2022/10/13 13:12:54;;;;;;;;;3.00;2.00;;;;;25.06;43.92;101472.38;4908096;28;45614;-79
2022/10/13 13:15:36;;;;;;;;;2.00;2.00;;;;;25.11;44.42;101483.63;4892471;28;45549;-80
2022/10/13 13:18:30;;;;;;;;;2.67;2.33;;;;;25.15;44.23;101480.56;4907184;28;46302;-80
2022/10/13 13:20:55;;;;;;;;;3.00;2.00;;;;;25.16;44.52;101483.13;4911237;28;45968;-79
2022/10/13 13:23:22;;;;;;;;;2.00;2.00;;;;;25.19;44.46;101476.53;4908234;28;45502;-77
2022/10/13 13:26:00;;;;;;;;;4.00;2.00;;;;;25.21;43.77;101471.75;4907381;28;45642;-80
2022/10/13 13:28:30;;;;;;;;;1.00;1.00;;;;;25.21;44.06;101479.91;4997695;28;45425;-78
2022/10/13 13:30:56;;;;;;;;;2.00;1.67;;;;;25.21;44.08;101474.47;5003012;28;45453;-77
2022/10/13 13:33:22;;;;;;;;;1.67;1.33;;;;;25.16;44.23;101471.41;4998929;28;46039;-77
2022/10/13 13:35:47;;;;;;;;;1.33;1.33;;;;;25.15;44.52;101467.00;5010140;28;45527;-78
2022/10/13 13:38:13;;;;;;;;;2.00;2.00;;;;;25.18;44.31;101464.78;5009755;28;46094;-76
2022/10/13 13:40:39;;;;;;;;;2.00;1.00;;;;;25.23;44.58;101467.91;5000147;28;45958;-78
2022/10/13 13:43:04;;;;;;;;;2.00;2.00;;;;;25.27;44.39;101460.28;5001193;28;45584;-76
2022/10/13 13:45:29;;;;;;;;;2.67;2.67;;;;;25.27;44.50;101452.94;4999769;28;45553;-76
2022/10/13 13:47:55;;;;;;;;;4.00;2.33;;;;;25.34;44.33;101452.31;5001155;28;46333;-77
2022/10/13 13:50:26;;;;;;;;;1.00;1.00;;;;;25.39;44.03;101456.22;5003979;28;47772;-78
2022/10/13 13:52:51;;;;;;;;;3.00;3.00;;;;;25.42;44.51;101448.78;5019484;28;45462;-76
2022/10/13 13:55:17;;;;;;;;;1.00;1.00;;;;;25.43;44.27;101445.03;4995863;28;45370;-77
2022/10/13 13:57:43;;;;;;;;;4.00;2.67;;;;;25.46;44.69;101447.44;5001422;28;45839;-76
2022/10/13 14:00:14;;;;;;;;;4.33;2.00;;;;;25.47;44.84;101455.41;4999931;28;45461;-75
2022/10/13 14:02:41;;;;;;;;;3.67;2.00;;;;;25.46;44.28;101444.72;5000380;28;47362;-76
2022/10/13 14:05:07;;;;;;;;;2.00;2.00;;;;;25.46;44.49;101445.56;5001753;28;45900;-81
2022/10/13 14:07:32;;;;;;;;;3.00;3.00;;;;;25.45;42.42;101443.84;5001125;28;45779;-82
2022/10/13 14:09:57;;;;;;;;;2.00;2.00;;;;;25.39;42.62;101434.50;4985255;28;45766;-78
2022/10/13 14:12:23;;;;;;;;;2.33;2.00;;;;;25.34;42.85;101431.41;5007755;28;45421;-79
2022/10/13 14:14:48;;;;;;;;;2.00;2.00;;;;;25.28;43.44;101429.38;5001418;28;46223;-76
2022/10/13 14:17:13;;;;;;;;;2.00;2.00;;;;;25.25;42.94;101424.25;5000222;28;45556;-77
2022/10/13 14:19:40;;;;;;;;;3.00;2.00;;;;;25.25;43.41;101426.97;4998687;28;46142;-77
2022/10/13 14:22:06;;;;;;;;;3.00;1.67;;;;;25.24;43.56;101433.41;5002672;28;45631;-77
2022/10/13 14:24:31;;;;;;;;;2.00;2.00;;;;;25.20;43.59;101419.31;4998664;28;46172;-77
2022/10/13 14:26:56;;;;;;;;;3.33;1.00;;;;;25.21;43.38;101433.75;4999369;28;61605;-77
2022/10/13 14:29:22;;;;;;;;;1.00;1.00;;;;;25.21;44.11;101426.44;4999492;28;45615;-77
2022/10/13 14:31:47;;;;;;;;;3.33;3.00;;;;;25.20;44.01;101426.59;5002731;28;45338;-79
2022/10/13 14:34:13;;;;;;;;;2.33;2.33;;;;;25.17;44.15;101416.91;4978031;28;45519;-78
2022/10/13 14:36:38;;;;;;;;;2.00;2.00;;;;;25.17;44.16;101429.66;5004355;28;45774;-77
2022/10/13 14:39:04;;;;;;;;;5.33;4.00;;;;;25.15;43.97;101424.41;5000767;28;45685;-74
2022/10/13 14:41:30;;;;;;;;;1.33;1.00;;;;;25.16;44.51;101422.50;4999963;28;45849;-75
2022/10/13 14:43:56;;;;;;;;;4.00;2.00;;;;;25.15;44.49;101428.97;4999259;28;45360;-75
2022/10/13 14:46:22;;;;;;;;;1.67;1.67;;;;;25.13;44.43;101419.13;4999021;28;45497;-76
2022/10/13 14:48:48;;;;;;;;;2.00;2.00;;;;;25.12;44.38;101420.13;4998799;28;45559;-78
2022/10/13 14:51:14;;;;;;;;;2.33;2.33;;;;;25.12;44.50;101412.00;4984512;28;45681;-76
2022/10/13 14:53:42;;;;;;;;;1.33;1.33;;;;;25.10;44.51;101410.47;5000704;28;45516;-76
2022/10/13 14:56:26;;;;;;;;;1.00;1.00;;;;;25.07;44.65;101419.78;4996966;28;45574;-77
2022/10/13 14:58:54;;;;;;;;;2.00;2.00;;;;;25.08;44.50;101415.19;4997458;28;46427;-78
2022/10/13 15:01:20;;;;;;;;;3.00;2.33;;;;;25.06;44.22;101406.34;5000633;28;46172;-78
2022/10/13 15:03:45;;;;;;;;;2.00;2.00;;;;;25.04;45.05;101413.81;4999341;28;45441;-78
2022/10/13 15:06:22;;;;;;;;;1.00;1.00;;;;;25.02;45.07;101399.56;5000486;28;45618;-76
2022/10/13 15:08:49;;;;;;;;;2.00;2.00;;;;;25.02;44.90;101403.13;4999555;28;45528;-77
2022/10/13 15:11:16;;;;;;;;;3.00;1.67;;;;;24.97;45.24;101395.44;4999188;28;45595;-76
2022/10/13 15:13:41;;;;;;;;;2.00;1.00;;;;;24.98;44.97;101409.91;4997615;28;45596;-77
2022/10/13 15:16:14;;;;;;;;;1.67;1.67;;;;;24.97;44.98;101403.59;5000122;28;45634;-77
2022/10/13 15:18:39;;;;;;;;;2.67;2.67;;;;;24.95;45.08;101397.50;4998200;28;46107;-77
2022/10/13 15:21:04;;;;;;;;;4.00;3.33;;;;;24.98;44.63;101405.28;4994971;28;51833;-77
2022/10/13 15:23:31;;;;;;;;;2.33;2.00;;;;;24.99;43.46;101392.56;4998615;28;49326;-75
2022/10/13 15:25:58;;;;;;;;;3.00;2.33;;;;;25.04;43.93;101386.66;4998551;28;45519;-78
2022/10/13 15:28:44;;;;;;;;;3.33;3.00;;;;;24.97;44.00;101387.31;4993701;28;46950;-79
2022/10/13 15:31:11;;;;;;;;;2.33;1.00;;;;;24.91;44.09;101381.66;4997352;28;45600;-82
2022/10/13 15:33:37;;;;;;;;;1.00;1.00;;;;;24.85;44.49;101378.59;4998768;28;45643;-81
2022/10/13 15:36:03;;;;;;;;;3.00;3.00;;;;;24.85;44.08;101384.03;5002001;28;46100;-80
2022/10/13 15:38:29;;;;;;;;;2.00;2.00;;;;;24.83;44.49;101377.91;5000141;28;47302;-84
2022/10/13 15:41:02;;;;;;;;;5.00;2.33;;;;;24.83;44.63;101377.91;4999164;28;45595;-83
2022/10/13 15:43:28;;;;;;;;;1.33;1.33;;;;;24.77;44.83;101370.38;5000453;28;46782;-82
2022/10/13 15:46:01;;;;;;;;;3.33;3.33;;;;;24.85;44.08;101386.75;5005676;28;46180;-80
2022/10/13 15:48:26;;;;;;;;;4.33;3.00;;;;;24.91;43.12;101381.66;4987298;28;45585;-78
2022/10/13 15:50:52;;;;;;;;;3.00;3.00;;;;;24.89;43.02;101381.81;5001507;28;45529;-77
2022/10/13 15:53:18;;;;;;;;;3.00;3.00;;;;;24.83;42.67;101377.91;5006477;28;45397;-80
2022/10/13 15:55:44;;;;;;;;;3.00;2.00;;;;;24.78;42.58;101377.53;5005117;28;45573;-77
2022/10/13 15:58:09;;;;;;;;;4.00;3.00;;;;;24.71;42.34;101377.31;4996204;28;45955;-77
2022/10/13 16:00:34;;;;;;;;;2.00;2.00;;;;;24.68;42.40;101376.78;5002043;28;45723;-77
2022/10/13 16:03:03;;;;;;;;;4.00;4.00;;;;;24.61;42.63;101377.41;5004657;28;45552;-77
2022/10/13 16:05:28;;;;;;;;;1.00;1.00;;;;;24.56;42.22;101378.94;5018905;28;46498;-77
2022/10/13 16:07:53;;;;;;;;;4.67;2.00;;;;;24.47;42.25;101372.56;5010109;28;45351;-78
2022/10/13 16:10:19;;;;;;;;;2.00;2.00;;;;;24.42;42.48;101369.50;4999768;28;45455;-77
2022/10/13 16:12:44;;;;;;;;;2.33;2.33;;;;;24.37;42.14;101361.84;5000985;28;54447;-77
2022/10/13 16:15:10;;;;;;;;;2.67;1.33;;;;;24.31;42.55;101370.59;5005412;28;47460;-80
2022/10/13 16:17:35;;;;;;;;;2.00;2.00;;;;;24.26;42.72;101365.66;5006263;28;45363;-80
2022/10/13 16:20:01;;;;;;;;;3.67;2.00;;;;;24.20;42.46;101358.19;5005489;28;45370;-78
2022/10/13 16:22:26;;;;;;;;;3.67;2.00;;;;;24.17;42.33;101356.63;5012942;28;45379;-79
2022/10/13 16:24:52;;;;;;;;;2.00;2.00;;;;;24.11;42.88;101361.84;5019173;28;45481;-79
2022/10/13 16:27:17;;;;;;;;;3.67;3.00;;;;;24.10;42.71;101360.13;5018633;28;45699;-80
2022/10/13 16:29:42;;;;;;;;;3.00;1.67;;;;;24.03;42.87;101359.88;5008556;28;45958;-83
2022/10/13 16:32:08;;;;;;;;;4.33;2.00;;;;;23.98;43.37;101357.63;5009493;28;45426;-80
2022/10/13 16:34:33;;;;;;;;;4.00;2.67;;;;;23.98;42.95;101348.66;5012637;28;45833;-80
2022/10/13 16:36:58;;;;;;;;;3.00;3.00;;;;;23.92;42.87;101355.53;4988734;28;58157;-79
2022/10/13 16:39:24;;;;;;;;;3.00;3.00;;;;;23.88;42.97;101355.00;5016554;28;48554;-79
2022/10/13 16:41:50;;;;;;;;;3.00;3.00;;;;;23.81;43.17;101348.50;5013463;28;45435;-78
2022/10/13 16:44:16;;;;;;;;;4.00;4.00;;;;;23.77;42.89;101347.09;5011569;28;46292;-77
2022/10/13 16:46:41;;;;;;;;;2.33;2.33;;;;;23.73;43.14;101351.97;5012550;28;45518;-80
2022/10/13 16:49:07;;;;;;;;;4.00;4.00;;;;;23.72;43.65;101344.88;5005998;28;45420;-78
2022/10/13 16:51:33;;;;;;;;;2.33;2.33;;;;;23.69;43.42;101334.31;5016341;28;46140;-80
2022/10/13 16:53:58;;;;;;;;;2.67;2.67;;;;;23.66;43.20;101338.19;5009249;28;45725;-82
2022/10/13 16:56:25;;;;;;;;;7.67;6.00;;;;;23.69;44.23;101345.16;5009936;28;45406;-79
2022/10/13 16:58:57;;;;;;;;;4.33;4.33;;;;;23.74;44.45;101344.72;5004769;28;45474;-78
2022/10/13 17:01:23;;;;;;;;;6.00;4.00;;;;;23.71;44.29;101345.88;5009881;28;45432;-76
2022/10/13 17:03:50;;;;;;;;;3.00;3.00;;;;;23.65;43.93;101338.34;5003647;28;46158;-80
2022/10/13 17:06:17;;;;;;;;;3.33;3.33;;;;;23.63;43.93;101343.91;5006651;28;45583;-77
2022/10/13 17:08:43;;;;;;;;;5.67;5.00;;;;;23.63;44.33;101333.09;4993861;28;45522;-77
2022/10/13 17:11:15;;;;;;;;;5.67;4.33;;;;;23.64;44.35;101344.78;4986662;28;46158;-77
2022/10/13 17:13:40;;;;;;;;;6.00;4.33;;;;;23.67;44.42;101344.50;5007913;28;46145;-80
2022/10/13 17:16:06;;;;;;;;;4.00;4.00;;;;;23.68;44.75;101341.63;4993494;28;45569;-80
2022/10/13 17:18:31;;;;;;;;;3.67;3.67;;;;;23.72;44.34;101339.44;5003005;28;45405;-77
2022/10/13 17:21:00;;;;;;;;;5.00;5.00;;;;;23.77;44.51;101345.25;5007511;28;45420;-79
2022/10/13 17:23:26;;;;;;;;;5.00;4.33;;;;;23.80;44.92;101347.63;5004573;28;46257;-75
2022/10/13 17:25:53;;;;;;;;;3.67;3.67;;;;;23.85;44.79;101349.03;5001776;28;45516;-79
2022/10/13 17:28:18;;;;;;;;;3.00;2.33;;;;;23.89;44.75;101348.56;5010841;28;45339;-77
2022/10/13 17:30:44;;;;;;;;;4.67;3.00;;;;;23.93;44.99;101343.69;5003634;28;45551;-74
2022/10/13 17:33:11;;;;;;;;;7.33;5.00;;;;;23.94;45.45;101343.53;5005033;28;45557;-74
2022/10/13 17:35:37;;;;;;;;;3.33;3.00;;;;;23.99;44.99;101344.94;5007469;28;45745;-75
2022/10/13 17:38:03;;;;;;;;;3.33;3.33;;;;;24.03;45.15;101351.75;4999216;28;45481;-74
2022/10/13 17:40:32;;;;;;;;;5.00;3.67;;;;;24.08;45.26;101352.13;5002173;28;45488;-74
2022/10/13 17:42:57;;;;;;;;;3.67;3.33;;;;;24.11;45.10;101348.28;5015376;28;46498;-74
2022/10/13 17:45:23;;;;;;;;;4.33;4.33;;;;;24.13;45.23;101346.25;5005006;28;45385;-74
2022/10/13 17:47:50;;;;;;;;;7.00;5.00;;;;;24.15;45.16;101345.06;5007489;28;45645;-76
2022/10/13 17:50:16;;;;;;;;;3.00;3.00;;;;;24.18;45.34;101342.06;5003995;28;45532;-73
2022/10/13 17:52:42;;;;;;;;;4.00;4.00;;;;;24.21;45.48;101349.03;5007408;28;45649;-77
2022/10/13 17:55:08;;;;;;;;;4.00;4.00;;;;;24.23;45.34;101349.69;5006790;28;45428;-87
2022/10/13 17:57:33;;;;;;;;;3.33;3.33;;;;;24.27;45.33;101348.38;5004423;28;45462;-83
2022/10/13 17:59:59;;;;;;;;;3.33;3.33;;;;;24.28;45.75;101341.94;4986382;28;45507;-86
2022/10/13 18:02:24;;;;;;;;;7.00;4.00;;;;;24.34;45.45;101348.59;5004496;28;46508;-84
2022/10/13 18:04:49;;;;;;;;;3.33;3.33;;;;;24.35;45.31;101347.56;5002481;28;45624;-83
2022/10/13 18:07:15;;;;;;;;;5.33;4.67;;;;;24.38;45.37;101352.69;5012231;28;49408;-79
2022/10/13 18:09:40;;;;;;;;;6.00;4.00;;;;;24.39;45.30;101343.53;5003074;28;45617;-79
2022/10/13 18:12:05;;;;;;;;;5.33;5.33;;;;;24.42;45.51;101336.94;5002818;28;46548;-79
2022/10/13 18:14:31;;;;;;;;;3.00;3.00;;;;;24.44;45.64;101340.34;4993485;28;45644;-79
2022/10/13 18:16:56;;;;;;;;;3.00;3.00;;;;;24.43;45.39;101334.06;5005791;28;48690;-79
2022/10/13 18:19:22;;;;;;;;;5.00;3.33;;;;;24.40;45.45;101326.25;5001303;28;45722;-79
2022/10/13 18:21:48;;;;;;;;;4.33;4.33;;;;;24.40;45.24;101336.25;5003780;28;45552;-76
2022/10/13 18:24:13;;;;;;;;;5.00;4.00;;;;;24.46;44.31;101330.19;5001566;28;45572;-77
2022/10/13 18:26:39;;;;;;;;;4.00;4.00;;;;;24.43;44.02;101334.06;4999078;28;45492;-77
2022/10/13 18:29:06;;;;;;;;;4.00;4.00;;;;;24.36;43.84;101334.88;4999896;28;45443;-76
2022/10/13 18:31:34;;;;;;;;;4.00;4.00;;;;;24.30;43.76;101337.22;5012098;28;45441;-78
2022/10/13 18:34:12;;;;;;;;;6.00;4.33;;;;;24.25;43.93;101328.72;4999691;28;45694;-78
2022/10/13 18:36:40;;;;;;;;;4.00;4.00;;;;;24.21;44.37;101333.56;5006604;28;45550;-77
2022/10/13 18:39:10;;;;;;;;;5.00;4.00;;;;;24.20;44.44;101329.16;5002713;28;45368;-77
2022/10/13 18:41:36;;;;;;;;;4.33;4.33;;;;;24.15;44.29;101334.22;5002550;28;46215;-77
2022/10/13 18:44:03;;;;;;;;;4.00;4.00;;;;;24.15;44.31;101336.94;5008727;28;45472;-77
2022/10/13 18:46:28;;;;;;;;;6.67;4.33;;;;;24.12;44.40;101323.72;5009488;28;45886;-77